Decoded Metar for PAKP (ANAKTUVUK PASS in AK, USA) (IATA:AKP) | Meteo·Mobile Aviation Weather
aviador You're here:

PAKP Decoded Metar

ANAKTUVUK PASS in AK, USA
Report Time2018-09-21 11:56:00
UTC Time2018-09-21 12:14:07
Flight Rules lifr LIFR
Wind050° at 04 kt
W.Decomp.*RWY 02: 4.0 kt HW 0.6 kt RCW
W.Rank050° ranks 2
Current wind is below 050° avg. (10.7)
Visibility1207 m
Phenomena:Mist
Clouds:Overcast 001 Hf
Ceiling100 ft
Temp01°C (ISA -10)
Dew Point01°C (100% RH)
AAT-2.3°C
QNH1012 hPa
Density Alt1,047 ft
Elevation2,106 ft
Report Wrong Elevation
Raw Report
PAKP 211156Z AUTO 05004KT 3/4SM BR OVC001 01/01 A2987 RMK AO2
SLP149 60003 70003 T00110011 10039 20011 56004 FZRANO=

Extra information for PAKP:More info

Metar Taf Metar & Taf Last 4 Metars F.Rules Stats Wind Profile Meteogram Temp Stats Airport Information Weather charts Add Link Nearby VenuesMetar ALERT Operation Metar Decoded Social comments

AIRNAV info for PAKP